createdAt,value
2019-04-11T00:05:43.938Z,3.97
2019-04-11T00:08:10.143Z,3.95
2019-04-11T00:16:19.397Z,3.94
2019-04-11T00:18:47.162Z,3.93
2019-04-11T00:21:14.814Z,3.71
2019-04-11T00:23:42.670Z,3.72
2019-04-11T00:26:10.078Z,3.74
2019-04-11T00:28:35.941Z,3.64
2019-04-11T00:31:01.784Z,3.69
2019-04-11T00:33:27.690Z,3.60
2019-04-11T00:35:53.533Z,3.65
2019-04-11T00:38:19.379Z,3.58
2019-04-11T00:40:45.833Z,3.58
2019-04-11T00:43:12.977Z,3.43
2019-04-11T00:45:40.013Z,3.44
2019-04-11T00:48:06.563Z,3.41
2019-04-11T00:50:32.391Z,3.35
2019-04-11T00:52:58.244Z,3.36
2019-04-11T00:55:24.071Z,3.29
2019-04-11T00:57:49.938Z,3.27
2019-04-11T01:00:57.613Z,3.28
2019-04-11T01:03:24.248Z,3.20
2019-04-11T01:05:51.943Z,3.26
2019-04-11T01:08:19.828Z,3.28
2019-04-11T01:10:47.824Z,3.21
2019-04-11T01:13:15.750Z,3.11
2019-04-11T01:18:30.150Z,3.06
2019-04-11T01:20:55.980Z,3.11
2019-04-11T01:23:22.774Z,3.02
2019-04-11T01:28:37.015Z,3.03
2019-04-11T01:34:10.642Z,2.97
2019-04-11T01:36:37.925Z,3.00
2019-04-11T01:39:45.456Z,2.94
2019-04-11T01:44:57.006Z,2.90
2019-04-11T01:52:47.379Z,2.75
2019-04-11T01:55:14.362Z,2.64
2019-04-11T01:57:43.098Z,2.66
2019-04-11T02:00:48.838Z,2.58
2019-04-11T02:03:19.402Z,2.48
2019-04-11T02:05:45.380Z,2.57
2019-04-11T02:08:11.286Z,2.58
2019-04-11T02:10:37.424Z,2.62
2019-04-11T02:13:03.629Z,2.59
2019-04-11T02:15:30.451Z,2.65
2019-04-11T02:17:57.273Z,2.68
2019-04-11T02:20:23.322Z,2.70
2019-04-11T02:23:00.196Z,2.76
2019-04-11T02:25:37.350Z,2.68
2019-04-11T02:28:04.994Z,2.57
2019-04-11T02:30:31.672Z,2.51
2019-04-11T02:32:58.328Z,2.13
2019-04-11T02:35:24.376Z,2.06
2019-04-11T02:37:51.979Z,2.15
2019-04-11T02:40:20.098Z,2.29
2019-04-11T02:42:47.478Z,2.29
2019-04-11T02:45:27.853Z,2.15
2019-04-11T02:47:44.510Z,0.49
2019-04-11T02:50:12.433Z,1.93
2019-04-11T02:52:37.800Z,2.16
2019-04-11T02:55:05.841Z,2.23
2019-04-11T02:57:34.178Z,2.17
2019-04-11T03:00:01.885Z,2.36
2019-04-11T03:02:28.201Z,2.16
2019-04-11T03:04:55.771Z,2.20
2019-04-11T03:07:22.705Z,2.21
2019-04-11T03:09:50.943Z,2.33
2019-04-11T03:12:16.941Z,2.27
2019-04-11T03:15:00.782Z,2.18
2019-04-11T03:17:19.645Z,1.98
2019-04-11T03:19:53.627Z,2.13
2019-04-11T03:22:08.099Z,2.15
2019-04-11T03:24:35.938Z,2.32
2019-04-11T03:27:04.756Z,2.12
2019-04-11T03:29:31.450Z,2.12
2019-04-11T03:39:43.628Z,1.99
2019-04-11T03:42:07.409Z,1.80
2019-04-11T03:44:24.383Z,1.66
2019-04-11T03:47:01.238Z,1.70
2019-04-11T03:49:26.873Z,1.73
2019-04-11T03:51:43.043Z,1.50
2019-04-11T03:54:09.851Z,1.66
2019-04-11T03:56:37.281Z,1.65
2019-04-11T03:59:04.145Z,1.61
2019-04-11T04:01:32.036Z,1.43
2019-04-11T04:04:00.472Z,1.52
2019-04-11T04:06:26.580Z,1.63
2019-04-11T04:08:53.209Z,1.65
2019-04-11T04:11:24.904Z,1.67
2019-04-11T04:13:53.982Z,1.58
2019-04-11T04:16:32.192Z,1.70
2019-04-11T04:18:56.481Z,1.70
2019-04-11T04:21:42.890Z,1.70
2019-04-11T04:24:28.644Z,1.83
2019-04-11T04:26:56.791Z,1.90
2019-04-11T04:29:25.144Z,1.90
2019-04-11T04:31:50.986Z,0.84
2019-04-11T04:34:17.776Z,1.61
2019-04-11T04:36:44.501Z,1.71
2019-04-11T04:39:10.723Z,1.76
2019-04-11T04:41:44.064Z,1.87
2019-04-11T04:44:06.459Z,1.75
2019-04-11T04:46:50.207Z,1.73
2019-04-11T04:49:00.585Z,1.64
2019-04-11T04:51:26.847Z,1.49
2019-04-11T04:53:52.811Z,1.46
2019-04-11T04:56:24.007Z,1.35
2019-04-11T04:58:47.115Z,1.05
2019-04-11T05:01:15.123Z,1.06
2019-04-11T05:03:42.358Z,1.11
2019-04-11T05:06:09.998Z,1.14
2019-04-11T05:08:36.382Z,1.28
2019-04-11T05:11:02.832Z,1.24
2019-04-11T05:13:30.287Z,0.06
2019-04-11T05:16:06.865Z,1.14
2019-04-11T05:18:24.106Z,1.08
2019-04-11T05:20:49.961Z,1.27
2019-04-11T05:23:16.910Z,1.11
2019-04-11T05:25:42.920Z,1.17
2019-04-11T05:28:09.831Z,1.41
2019-04-11T05:30:36.413Z,1.36
2019-04-11T05:33:02.492Z,1.37
2019-04-11T05:35:28.338Z,1.36
2019-04-11T05:37:54.198Z,1.55
2019-04-11T05:40:21.086Z,1.60
2019-04-11T05:42:51.117Z,1.74
2019-04-11T05:45:20.743Z,1.83
2019-04-11T05:47:43.488Z,1.89
2019-04-11T05:50:17.998Z,1.83
2019-04-11T05:52:44.222Z,2.14
2019-04-11T05:55:13.547Z,2.26
2019-04-11T05:57:41.484Z,2.36
2019-04-11T06:00:11.731Z,2.47
2019-04-11T06:02:39.613Z,2.61
2019-04-11T06:05:11.064Z,2.61
2019-04-11T06:07:46.212Z,2.75
2019-04-11T06:10:14.780Z,2.82
2019-04-11T06:12:52.622Z,2.96
2019-04-11T06:15:21.497Z,2.91
2019-04-11T06:17:50.301Z,3.05
2019-04-11T06:20:35.573Z,3.12
2019-04-11T06:23:19.159Z,3.30
2019-04-11T06:25:49.717Z,3.35
2019-04-11T06:28:18.033Z,3.40
2019-04-11T06:31:04.586Z,3.52
2019-04-11T06:33:32.466Z,3.59
2019-04-11T06:36:12.243Z,3.77
2019-04-11T06:38:46.814Z,3.78
2019-04-11T06:41:24.339Z,3.93
2019-04-11T06:44:04.779Z,4.08
2019-04-11T06:46:33.396Z,4.17
2019-04-11T06:49:02.412Z,4.69
2019-04-11T06:51:32.960Z,4.87
2019-04-11T06:54:17.321Z,5.15
2019-04-11T06:56:45.473Z,5.24
2019-04-11T06:59:14.326Z,5.53
2019-04-11T07:01:42.610Z,5.61
2019-04-11T07:04:49.543Z,5.95
2019-04-11T07:18:31.259Z,6.00
2019-04-11T07:23:51.348Z,6.43
2019-04-11T07:35:02.427Z,6.42
2019-04-11T07:43:18.533Z,6.98
2019-04-11T07:46:04.623Z,6.88
2019-04-11T07:56:38.731Z,6.81
2019-04-11T07:59:25.017Z,6.84
2019-04-11T08:02:10.780Z,7.02
2019-04-11T08:04:57.568Z,7.04
2019-04-11T08:07:44.814Z,7.35
2019-04-11T08:10:50.642Z,7.35
2019-04-11T08:13:36.833Z,7.34
2019-04-11T08:16:22.566Z,7.78
2019-04-11T08:19:08.288Z,7.53
2019-04-11T08:21:54.595Z,7.76
2019-04-11T08:24:40.655Z,7.76
2019-04-11T08:27:27.478Z,7.41
2019-04-11T08:32:50.448Z,7.34
2019-04-11T08:35:36.593Z,7.39
2019-04-11T08:41:09.788Z,7.45
2019-04-11T08:43:55.508Z,7.68
2019-04-11T08:49:18.574Z,7.86
2019-04-11T08:55:02.211Z,7.70
2019-04-11T08:57:48.080Z,7.70
2019-04-11T09:00:57.646Z,8.04
2019-04-11T09:03:44.045Z,7.93
2019-04-11T09:06:30.824Z,7.99
2019-04-11T09:09:16.561Z,7.99
2019-04-11T09:11:58.252Z,7.95
2019-04-11T09:19:51.932Z,8.20
2019-04-11T09:25:51.339Z,8.04
2019-04-11T09:31:27.739Z,7.67
2019-04-11T09:39:41.484Z,8.62
2019-04-11T09:42:28.311Z,8.64
2019-04-11T09:47:48.012Z,8.24
2019-04-11T09:50:34.210Z,8.33
2019-04-11T09:56:07.345Z,8.52
2019-04-11T09:58:33.712Z,8.25
2019-04-11T10:01:20.921Z,8.19
2019-04-11T10:06:55.052Z,8.69
2019-04-11T10:12:28.237Z,8.50
2019-04-11T10:14:54.114Z,8.51
2019-04-11T10:23:11.286Z,8.76
2019-04-11T10:28:46.022Z,8.52
2019-04-11T10:31:12.632Z,8.52
2019-04-11T10:36:55.837Z,9.09
2019-04-11T10:39:41.755Z,9.09
2019-04-11T10:45:34.681Z,9.31
2019-04-11T10:48:01.203Z,9.31
2019-04-11T10:50:48.642Z,9.25
2019-04-11T10:53:35.353Z,9.10
2019-04-11T10:56:22.301Z,9.13
2019-04-11T11:01:42.265Z,9.29
2019-04-11T11:04:48.489Z,9.36
2019-04-11T11:13:16.114Z,9.57
2019-04-11T11:19:24.876Z,9.83
2019-04-11T11:21:30.589Z,9.83
2019-04-11T11:24:15.460Z,9.64
2019-04-11T11:27:03.987Z,9.43
2019-04-11T11:32:16.746Z,9.33
2019-04-11T11:37:51.388Z,9.28
2019-04-11T11:40:39.158Z,9.77
2019-04-11T11:46:19.334Z,9.90
2019-04-11T11:54:40.268Z,11.38
2019-04-11T12:02:34.765Z,10.36
2019-04-11T12:05:22.252Z,10.34
2019-04-11T12:08:28.646Z,10.87
2019-04-11T12:11:10.250Z,11.47
2019-04-11T12:13:56.048Z,11.47
2019-04-11T12:19:53.345Z,11.90
2019-04-11T12:25:45.769Z,11.06
2019-04-11T12:28:31.474Z,11.13
2019-04-11T12:34:14.363Z,10.17
2019-04-11T12:37:00.171Z,10.50
2019-04-11T12:45:27.024Z,11.81
2019-04-11T12:47:53.150Z,11.33
2019-04-11T12:50:58.843Z,10.33
2019-04-11T12:53:44.684Z,9.91
2019-04-11T12:56:50.314Z,10.03
2019-04-11T12:59:36.050Z,11.18
2019-04-11T13:02:41.650Z,12.08
2019-04-11T13:05:49.134Z,12.08
2019-04-11T13:08:34.878Z,12.73
2019-04-11T13:11:16.028Z,10.74
2019-04-11T13:14:01.782Z,10.74
2019-04-11T13:17:07.378Z,10.34
2019-04-11T13:20:04.096Z,10.34
2019-04-11T13:22:40.912Z,10.18
2019-04-11T13:25:26.782Z,10.18
2019-04-11T13:28:12.494Z,11.89
2019-04-11T13:31:18.106Z,13.02
2019-04-11T13:36:51.195Z,12.73
2019-04-11T13:42:44.186Z,10.52
2019-04-11T13:48:44.326Z,9.78
2019-04-11T13:51:30.639Z,9.78
2019-04-11T13:54:36.219Z,11.93
2019-04-11T13:57:21.944Z,11.93
2019-04-11T14:00:27.525Z,12.84
2019-04-11T14:03:33.126Z,11.33
2019-04-11T14:09:26.208Z,10.91
2019-04-11T14:12:06.036Z,12.05
2019-04-11T14:14:34.858Z,12.05
2019-04-11T14:20:13.531Z,12.45
2019-04-11T14:23:21.060Z,13.17
2019-04-11T14:26:06.804Z,13.17
2019-04-11T14:28:52.547Z,13.88
2019-04-11T14:31:38.279Z,12.65
2019-04-11T14:42:53.325Z,10.98
2019-04-11T14:45:58.954Z,10.86
2019-04-11T14:51:52.091Z,11.56
2019-04-11T14:57:53.587Z,11.34
2019-04-11T15:01:00.631Z,11.34
2019-04-11T15:04:06.222Z,10.77
2019-04-11T15:09:46.683Z,10.70
2019-04-11T15:12:28.099Z,10.25
2019-04-11T15:15:27.133Z,10.12
2019-04-11T15:21:00.349Z,10.14
2019-04-11T15:32:40.467Z,11.48
2019-04-11T15:38:33.616Z,10.49
2019-04-11T15:41:19.500Z,10.49
2019-04-11T15:44:05.260Z,9.82
2019-04-11T15:49:46.474Z,10.03
2019-04-11T15:52:32.026Z,10.06
2019-04-11T15:55:38.209Z,9.76
2019-04-11T16:01:17.754Z,9.52
2019-04-11T16:04:23.373Z,9.48
2019-04-11T16:07:09.116Z,9.48
2019-04-11T16:09:35.009Z,9.94
2019-04-11T16:15:30.515Z,10.23
2019-04-11T16:18:15.998Z,10.23
2019-04-11T16:23:49.716Z,9.94
2019-04-11T16:29:43.037Z,9.24
2019-04-11T16:38:11.112Z,9.32
2019-04-11T16:40:56.855Z,9.48
2019-04-11T16:43:24.479Z,9.29
2019-04-11T16:46:10.401Z,9.52
2019-04-11T16:48:56.468Z,9.30
2019-04-11T16:51:42.262Z,9.16
2019-04-11T16:54:28.009Z,9.14
2019-04-11T16:57:14.333Z,8.96
2019-04-11T16:59:40.212Z,8.96
2019-04-11T17:02:06.171Z,9.04
2019-04-11T17:04:32.088Z,8.94
2019-04-11T17:07:17.852Z,8.97
2019-04-11T17:10:03.558Z,8.87
2019-04-11T17:12:29.467Z,8.68
2019-04-11T17:14:55.319Z,8.68
2019-04-11T17:17:21.157Z,8.65
2019-04-11T17:19:47.008Z,8.68
2019-04-11T17:22:12.844Z,8.69
2019-04-11T17:24:38.719Z,8.45
2019-04-11T17:27:04.559Z,8.29
2019-04-11T17:29:30.527Z,8.28
2019-04-11T17:31:56.714Z,8.28
2019-04-11T17:34:44.152Z,8.15
2019-04-11T17:37:10.020Z,8.15
2019-04-11T17:39:36.814Z,8.11
2019-04-11T17:42:23.506Z,7.99
2019-04-11T17:44:49.390Z,7.99
2019-04-11T17:47:15.243Z,7.92
2019-04-11T17:49:41.066Z,7.92
2019-04-11T17:52:07.130Z,7.69
2019-04-11T17:54:54.301Z,7.42
2019-04-11T17:57:20.643Z,7.42
2019-04-11T17:59:48.661Z,7.11
2019-04-11T18:02:34.117Z,6.66
2019-04-11T18:05:19.822Z,6.66
2019-04-11T18:08:05.691Z,6.49
2019-04-11T18:10:31.547Z,6.49
2019-04-11T18:13:00.370Z,6.28
2019-04-11T18:15:45.080Z,6.01
2019-04-11T18:18:10.934Z,6.01
2019-04-11T18:20:37.539Z,5.97
2019-04-11T18:23:04.532Z,5.97
2019-04-11T18:25:51.185Z,5.89
2019-04-11T18:28:21.712Z,5.89
2019-04-11T18:33:32.872Z,5.63
2019-04-11T18:36:01.828Z,5.54
2019-04-11T18:38:26.522Z,5.41
2019-04-11T18:40:52.408Z,5.45
2019-04-11T18:43:18.500Z,5.41
2019-04-11T18:45:44.385Z,5.39
2019-04-11T18:48:10.240Z,5.30
2019-04-11T18:51:17.754Z,5.08
2019-04-11T18:53:43.657Z,5.02
2019-04-11T18:56:09.512Z,4.88
2019-04-11T18:58:35.510Z,4.91
2019-04-11T19:03:48.796Z,4.80
2019-04-11T19:06:56.267Z,4.69
2019-04-11T19:11:55.817Z,4.44
2019-04-11T19:14:24.572Z,4.54
2019-04-11T19:16:49.548Z,4.55
2019-04-11T19:22:02.957Z,4.35
2019-04-11T19:24:35.423Z,4.23
2019-04-11T19:26:56.588Z,4.12
2019-04-11T19:29:24.738Z,4.14
2019-04-11T19:31:50.182Z,4.08
2019-04-11T19:34:16.031Z,4.07
2019-04-11T19:36:42.397Z,4.17
2019-04-11T19:39:13.601Z,4.07
2019-04-11T19:41:37.588Z,4.02
2019-04-11T19:44:03.477Z,3.93
2019-04-11T19:46:29.306Z,4.01
2019-04-11T19:48:59.047Z,3.82
2019-04-11T19:51:22.908Z,3.83
2019-04-11T19:53:48.791Z,3.78
2019-04-11T19:59:02.111Z,3.80
2019-04-11T20:01:28.044Z,3.72
2019-04-11T20:03:54.651Z,3.68
2019-04-11T20:06:21.664Z,3.70
2019-04-11T20:08:47.887Z,3.55
2019-04-11T20:11:15.269Z,3.48
2019-04-11T20:13:41.236Z,3.46
2019-04-11T20:16:07.122Z,3.51
2019-04-11T20:18:32.977Z,3.33
2019-04-11T20:20:58.959Z,3.35
2019-04-11T20:23:26.636Z,3.26
2019-04-11T20:25:52.540Z,3.29
2019-04-11T20:28:19.924Z,3.26
2019-04-11T20:30:46.203Z,3.11
2019-04-11T20:33:12.040Z,3.15
2019-04-11T20:35:39.990Z,3.20
2019-04-11T20:38:05.635Z,3.01
2019-04-11T20:40:52.461Z,3.02
2019-04-11T20:43:19.105Z,3.00
2019-04-11T20:45:45.037Z,2.95
2019-04-11T20:48:10.897Z,2.91
2019-04-11T20:50:36.727Z,2.89
2019-04-11T20:53:44.252Z,2.84
2019-04-11T20:56:10.730Z,2.72
2019-04-11T20:58:39.658Z,2.80
2019-04-11T21:03:51.315Z,2.62
2019-04-11T21:06:17.522Z,2.74
2019-04-11T21:08:43.364Z,2.53
2019-04-11T21:11:09.214Z,2.54
2019-04-11T21:13:38.102Z,2.44
2019-04-11T21:16:02.948Z,2.53
2019-04-11T21:18:28.798Z,2.45
2019-04-11T21:20:55.264Z,2.48
2019-04-11T21:23:24.775Z,2.50
2019-04-11T21:25:50.280Z,2.43
2019-04-11T21:28:16.141Z,2.40
2019-04-11T21:30:48.889Z,2.31
2019-04-11T21:33:14.982Z,2.31
2019-04-11T21:35:40.938Z,2.31
2019-04-11T21:38:06.791Z,2.26
2019-04-11T21:40:35.611Z,2.38
2019-04-11T21:43:00.479Z,2.25
2019-04-11T21:45:26.333Z,2.26
2019-04-11T21:47:52.198Z,2.24
2019-04-11T21:50:18.033Z,2.26
2019-04-11T21:53:03.854Z,2.30
2019-04-11T21:58:36.909Z,2.33
2019-04-11T22:01:44.391Z,2.23
2019-04-11T22:04:10.360Z,2.20
2019-04-11T22:06:36.190Z,2.13
2019-04-11T22:09:43.672Z,1.98
2019-04-11T22:12:29.506Z,2.12
2019-04-11T22:14:55.364Z,2.14
2019-04-11T22:17:21.198Z,2.16
2019-04-11T22:19:47.033Z,2.06
2019-04-11T22:22:12.890Z,2.08
2019-04-11T22:24:38.717Z,2.12
2019-04-11T22:27:04.586Z,1.97
2019-04-11T22:29:30.425Z,2.08
2019-04-11T22:31:56.589Z,2.17
2019-04-11T22:37:11.521Z,1.90
2019-04-11T22:39:37.361Z,1.97
2019-04-11T22:42:03.234Z,2.04
2019-04-11T22:44:29.086Z,1.82
2019-04-11T22:46:54.944Z,1.78
2019-04-11T22:49:20.795Z,1.68
2019-04-11T22:51:46.644Z,1.74
2019-04-11T22:54:13.251Z,1.68
2019-04-11T22:56:41.774Z,1.62
2019-04-11T22:59:08.015Z,1.76
2019-04-11T23:04:07.536Z,1.57
2019-04-11T23:06:33.396Z,1.66
2019-04-11T23:08:59.250Z,1.55
2019-04-11T23:11:25.056Z,1.55
2019-04-11T23:14:32.576Z,1.54
2019-04-11T23:16:58.401Z,1.66
2019-04-11T23:19:24.256Z,1.67
2019-04-11T23:22:12.163Z,1.47
2019-04-11T23:24:37.722Z,1.50
2019-04-11T23:27:23.403Z,1.51
2019-04-11T23:29:49.258Z,1.39
2019-04-11T23:32:15.092Z,1.40
2019-04-11T23:34:40.947Z,1.39
2019-04-11T23:37:06.801Z,1.15
2019-04-11T23:39:32.656Z,1.27
2019-04-11T23:41:58.575Z,1.27
2019-04-11T23:44:24.410Z,1.02
2019-04-11T23:46:51.981Z,1.10
2019-04-11T23:49:18.004Z,0.86
2019-04-11T23:51:43.830Z,0.94
2019-04-11T23:54:09.713Z,0.86
2019-04-11T23:56:35.565Z,0.85
2019-04-11T23:59:02.121Z,0.86
